| Date | Average Wind Speed (m/s) | Average Sigma Theta (°) | Average Temperature (°C) | Average Relative Humidity (%) | Total Precipitation (in) | Average Barometric Pressure (inHg) | Average Solar Radiation (W/m^2) | QC |
| 4/2/2026 | 1.6 | 27 | 5.1 | 79 | 0.45 | 25.63 | 116 | Raw |
| 4/3/2026 | 3.7 | 18 | 0.1 | 93 | 0.66 | 26.09 | 66 | Raw |
| 4/4/2026 | 1.5 | 21 | 4.9 | 66.6 | 0 | 26.28 | 257 | Raw |
| 4/5/2026 | 1 | 24 | 6.6 | 61.3 | 0 | 26.31 | 252 | Raw |
| 4/6/2026 | 1.2 | 23 | 5.4 | 73 | 0 | 26.17 | 166 | Raw |
| 4/7/2026 | 2 | 29 | 10.8 | 49.1 | 0 | 25.82 | 231 | Raw |
| 4/8/2026 | 2.1 | 26 | 5.9 | 50.2 | 0 | 26.01 | 259 | Raw |
| 4/9/2026 | 1.7 | 29 | 6.1 | 51.8 | 0 | 26.08 | 257 | Raw |
| 4/10/2026 | 2 | 28 | 10.4 | 49.3 | 0 | 26.01 | 238 | Raw |
| 4/11/2026 | 1.4 | 34 | 15.3 | 45.1 | 0.01 | 25.72 | 160 | Raw |
| 4/12/2026 | 1.5 | 33 | 11.9 | 54 | 0 | 25.75 | 230 | Raw |
| 4/13/2026 | 1.8 | 29 | 8.1 | 61 | 0.05 | 25.81 | 168 | Raw |
| 4/14/2026 | 1.1 | 33 | 8.3 | 48.3 | 0 | 25.83 | 273 | Raw |
| 4/15/2026 | 1.1 | 29 | 11.3 | 38.9 | 0 | 25.72 | 175 | Raw |
| 4/16/2026 | 1.8 | 17 | 3.4 | 77 | 0.5 | 25.81 | 63 | Raw |
| 4/17/2026 | 1.9 | 15 | 0.6 | 71.7 | 0 | 26.05 | 236 | Raw |
| 4/18/2026 | 1.5 | 27 | 4.4 | 58.2 | 0 | 26.14 | 279 | Raw |
| 4/19/2026 | 0.8 | 31 | 8 | 46.4 | 0 | 26.06 | 286 | Raw |
| 4/20/2026 | 1 | 33 | 13 | 43.6 | 0 | 25.94 | 277 | Raw |
| 4/21/2026 | 1.3 | 29 | 17.4 | 35 | 0 | 25.85 | 256 | Raw |
| 4/22/2026 | 2.7 | 37 | 16.2 | 32.9 | 0 | 25.59 | 261 | Raw |
| 4/23/2026 | 3.7 | 23 | 5.7 | 67.2 | 0.2 | 25.8 | 156 | Raw |
| 4/24/2026 | 1.7 | 27 | 1.1 | 63.8 | 0.02 | 25.95 | 147 | Raw |
| 4/25/2026 | 1.1 | 30 | 1.8 | 62.3 | 0 | 25.97 | 171 | Raw |
| 4/26/2026 | 2.4 | 23 | 0.5 | 83.7 | 0.1 | 25.86 | 76 | Raw |
| 4/27/2026 | 1.6 | 24 | -0.5 | 79.2 | 0.05 | 26.03 | 113 | Raw |
| 4/28/2026 | 1.1 | 23 | 4 | 61.6 | 0 | 26.05 | 231 | Raw |
| 4/29/2026 | 1.8 | 24 | 6.1 | 57.8 | 0 | 26.15 | 204 | Raw |
| 4/30/2026 | 1.7 | 21 | 6.4 | 51.4 | 0 | 26.16 | 289 | Raw |
| 5/1/2026 | 1.6 | 20 | 10.3 | 42.7 | 0 | 26.11 | 301 | Raw |
| 5/2/2026 | 1.5 | 22 | 13.1 | 41 | 0 | 26.04 | 278 | Raw |
| 5/3/2026 | 1.5 | 30 | 13.3 | 50.6 | 0.01 | 25.93 | 259 | Raw |
| 5/4/2026 - 5/4/2026 10:15:00 PM | 2.3 | 23 | 9 | 49.8 | 0 | 25.94 | 142 | Raw |